• Join FlightAware (Why Join?)
  • Login
  • US Flag GB Flag 
08:59 EST


 

Airport Tracker/Info


-or-


 

Live Flight TrackerFlight Track Log ✈ UAL4234 ✈ 17-Apr-2013 ✈ KIAH - KRDU

Flight Track Log - Related Links

Times and Time Zones

All times are in EDT time to prevent confusion due to time zone crossing. See the UAL4234 flight status page for this flight to view local times or setup timezone preferences in your user account.

Time Position Orientation Groundspeed Altitude Reporting Facility
EDT Latitude Longitude Course Direction KTS MPH feet Rate Location/Type
17:07 29.9617 -95.3436 97° East 154 177 600  Level Houston Center
17:08 29.9369 -95.2572 108° East 257 296 3,400 1,320 Climbing Houston Center
17:09 29.9533 -95.1731 77° East 261 300 4,100 1,440 Climbing Houston Center
17:10 29.9111 -94.7995 95° East  Level FlightAware Approximate
17:10 29.9697 -95.0878 77° East 270 311 6,400  Level Houston Center
17:11 29.8998 -94.6650 97° East  Level FlightAware Approximate
17:11 29.9861 -95.0011 78° East 274 315 8,600  Level Houston Center
17:12 29.8850 -94.5310 97° East  Level FlightAware Approximate
17:12 30.0031 -94.9072 78° East 293 337 10,400  Level Houston Center
17:13 29.9869 -94.8042 100° East 340 391 11,200 1,260 Climbing Houston Center
17:14 29.9525 -94.6742 107° East 352 405 13,100 1,620 Climbing Houston Center
17:15 29.9244 -94.5636 106° East 358 412 14,600 1,380 Climbing Houston Center
17:16 29.8964 -94.4503 106° East 366 421 16,000 1,320 Climbing Houston Center
17:17 29.8672 -94.3353 106° East 371 427 17,400 1,380 Climbing Houston Center
17:18 29.8592 -94.2125 94° East 383 441 18,900 1,320 Climbing Houston Center
17:19 29.8553 -94.0872 92° East 388 447 20,200 1,320 Climbing Houston Center
17:21 29.8669 -93.9311 85° East 405 466 21,700 1,320 Climbing Houston Center
17:22 29.8803 -93.7992 83° East 414 476 23,000 1,200 Climbing Houston Center
17:23 29.8953 -93.6658 83° East 418 481 24,300 1,380 Climbing Houston Center
17:24 29.9069 -93.5342 84° East 416 479 25,900 1,500 Climbing Houston Center
17:25 29.9183 -93.4003 84° East 419 482 27,400 1,380 Climbing Houston Center
17:26 29.9361 -93.2606 82° East 407 468 28,800 1,140 Climbing Houston Center
17:27 29.9481 -93.1286 84° East 418 481 29,800 1,080 Climbing Houston Center
17:28 29.9650 -92.9667 83° East 428 493 31,100 1,140 Climbing Houston Center
17:29 29.9772 -92.8297 84° East 431 496 32,200 960 Climbing Houston Center
17:30 29.9875 -92.6900 85° East 439 505 33,200 960 Climbing Houston Center
17:31 29.9994 -92.5519 84° East 437 503 34,200 840 Climbing Houston Center
17:32 30.0097 -92.4131 85° East 436 502 35,000 360 Climbing Houston Center
17:33 30.0208 -92.2711 85° East 446 513 35,000  Level Houston Center
17:34 30.0347 -92.0878 85° East 476 548 35,000  Level Houston Center
17:35 30.0481 -91.9275 84° East 498 573 35,000  Level Houston Center
17:36 30.0600 -91.7661 85° East 506 582 35,000  Level Houston Center
17:37 30.0722 -91.5958 85° East 506 582 35,000  Level Houston Center
17:38 30.0839 -91.4372 85° East 499 574 35,000  Level Houston Center
17:39 30.0939 -91.2803 86° East 493 567 35,000  Level Houston Center
17:40 30.1056 -91.1236 85° East 491 565 35,000  Level Houston Center
17:41 30.1208 -90.9375 85° East 488 562 35,000  Level Houston Center
17:42 30.1572 -90.7894 74° East 479 551 35,000  Level Houston Center
17:43 30.1931 -90.6417 74° East 479 551 35,000  Level Houston Center
17:44 30.2283 -90.4933 75° East 479 551 35,000  Level Houston Center
17:45 30.2656 -90.3450 74° East 480 552 35,000  Level Houston Center
17:46 30.3006 -90.1964 75° East 480 552 35,000 420 Level Houston Center
17:47 30.3425 -90.0200 75° East 474 545 35,900 900 Climbing Houston Center
17:48 30.3753 -89.8811 75° East 465 535 36,900 480 Climbing Houston Center
17:50 30.4103 -89.7386 74° East 461 531 37,000  Climbing Houston Center
17:51 30.4483 -89.5731 75° East 477 549 37,000  Level Houston Center
17:52 30.4825 -89.4239 75° East 478 550 37,000  Level Houston Center
17:53 30.5178 -89.2756 75° East 479 551 37,000  Level Houston Center
17:54 30.5506 -89.1258 76° East 481 554 37,000  Level Houston Center
17:55 30.5842 -88.9781 75° East 475 547 37,000  Level Houston Center
17:56 30.6200 -88.8181 75° East 477 549 37,000  Level Houston Center
17:57 30.6539 -88.6711 75° East 475 547 37,000  Level Houston Center
17:58 30.6936 -88.4939 75° East 476 548 37,000  Level Houston Center
17:59 30.7294 -88.3567 73° East 476 548 37,000  Level Houston Center
18:00 30.8125 -88.2417 50° Northeast 465 535 37,000  Level Houston Center
18:01 30.8967 -88.1292 49° Northeast 463 533 37,000  Level Houston Center
18:02 30.9986 -87.9933 49° Northeast 464 534 37,000  Level Houston Center
18:03 31.0814 -87.8828 49° Northeast 457 526 37,000  Level Houston Center
18:04 31.1669 -87.7692 49° Northeast 464 534 37,000  Level Houston Center
18:05 31.2514 -87.6558 49° Northeast 468 539 37,000  Level Houston Center
18:06 31.3347 -87.5422 49° Northeast 466 536 37,000  Level Houston Center
18:07 31.3858 -87.4783 47° Northeast 463 533 37,000  Level Atlanta Center
18:08 31.4725 -87.3622 49° Northeast 463 533 37,000  Level Atlanta Center
18:09 31.5569 -87.2458 50° Northeast 469 540 37,000  Level Atlanta Center
18:10 31.6433 -87.1294 49° Northeast 469 540 37,000  Level Atlanta Center
18:11 31.7319 -87.0006 51° Northeast 464 534 37,000  Level Atlanta Center
18:12 31.8183 -86.8814 50° Northeast 464 534 37,000  Level Atlanta Center
18:13 31.9044 -86.7642 49° Northeast 464 534 37,000  Level Atlanta Center
18:14 31.9881 -86.6589 47° Northeast 469 540 37,000  Level Atlanta Center
18:15 32.0742 -86.5389 50° Northeast 475 547 37,000  Level Atlanta Center
18:16 32.1578 -86.4211 50° Northeast 475 547 37,000  Level Atlanta Center
18:17 32.2481 -86.2858 52° Northeast 493 567 37,000  Level Atlanta Center
18:18 32.3292 -86.1797 48° Northeast 482 555 37,000  Level Atlanta Center
18:19 32.4106 -86.0636 50° Northeast 476 548 37,000  Level Atlanta Center
18:20 32.5042 -85.9475 46° Northeast 474 545 37,000  Level Atlanta Center
18:21 32.6000 -85.8239 47° Northeast 484 557 37,000  Level Atlanta Center
18:22 32.6914 -85.7025 48° Northeast 484 557 37,000  Level Atlanta Center
18:23 32.7786 -85.5856 48° Northeast 484 557 37,000  Level Atlanta Center
18:24 32.8697 -85.4658 48° Northeast 479 551 37,000  Level Atlanta Center
18:25 32.9544 -85.3386 52° Northeast 479 551 37,000  Level Atlanta Center
18:26 32.9936 -85.1856 73° East 469 540 37,000  Level Atlanta Center
18:27 33.0325 -85.0250 74° East 462 532 37,000  Level Atlanta Center
18:28 33.0672 -84.8667 75° East 467 537 37,000  Level Atlanta Center
18:29 33.1014 -84.7108 75° East 476 548 37,000  Level Atlanta Center
18:30 33.1356 -84.5522 76° East 486 559 37,000  Level Atlanta Center
18:31 33.1697 -84.3936 76° East 491 565 37,000  Level Atlanta Center
18:32 33.2056 -84.2375 75° East 486 559 37,000  Level Atlanta Center
18:33 33.2389 -84.0761 76° East 491 565 37,000  Level Atlanta Center
18:34 33.2764 -83.9144 74° East 491 565 37,000  Level Atlanta Center
18:35 33.3097 -83.7581 76° East 491 565 37,000 -420 Level Atlanta Center
18:36 33.3447 -83.5986 75° East 491 565 36,200 -540 Descending Atlanta Center
18:37 33.3775 -83.4369 76° East 491 565 36,000 -120 Descending Atlanta Center
18:38 33.4100 -83.2797 76° East 491 565 36,000 -300 Level Atlanta Center
18:39 33.4422 -83.1328 75° East 491 565 35,400 -660 Descending Atlanta Center
18:40 33.4744 -82.9778 76° East 491 565 34,700 -840 Descending Atlanta Center
18:41 33.5064 -82.8231 76° East 486 559 33,800 -900 Descending Atlanta Center
18:42 33.5383 -82.6706 76° East 480 552 33,000 -420 Descending Atlanta Center
18:43 33.5719 -82.5156 75° East 475 547 33,000  Level Atlanta Center
18:44 33.6158 -82.3650 71° East 469 540 33,000  Level Atlanta Center
18:45 33.6981 -82.0664 72° East 495 570 33,000  Level Jacksonville Center
18:46 33.7408 -81.9136 71° East 495 570 33,000  Level Jacksonville Center
18:47 33.7833 -81.7656 71° East 482 555 33,000  Level Jacksonville Center
18:48 33.8239 -81.6225 71° East 463 533 33,000  Level Jacksonville Center
18:49 33.8661 -81.4769 71° East 458 527 33,000 -300 Level Jacksonville Center
18:50 33.9042 -81.3411 71° East 462 532 32,500 -720 Descending Jacksonville Center
18:51 33.9461 -81.1928 71° East 469 540 31,600 -780 Descending Jacksonville Center
18:52 33.9897 -81.0442 70° East 469 540 31,000 -300 Descending Jacksonville Center
18:53 34.0294 -80.9006 72° East 458 527 31,000 -300 Level Jacksonville Center
18:54 34.0708 -80.7517 71° East 458 527 30,400 -840 Descending Jacksonville Center
18:55 34.1225 -80.6122 66° East 463 533 29,400 -1,380 Descending Jacksonville Center
18:56 34.2208 -80.5194 38° Northeast 435 501 27,700 -2,040 Descending Jacksonville Center
18:57 34.3217 -80.4386 34° Northeast 424 488 25,400 -2,340 Descending Jacksonville Center
18:59 34.4836 -80.3083 34° Northeast 415 478 21,400 -1,620 Descending Washington Center
19:00 34.5722 -80.2303 36° Northeast 398 458 21,000 -240 Descending Washington Center
19:01 34.6581 -80.1644 32° Northeast 376 433 21,000  Level Washington Center
19:02 34.7486 -80.0886 35° Northeast 382 440 21,000  Level Washington Center
19:03 34.8372 -80.0075 37° Northeast 392 451 21,000  Level Washington Center
19:04 34.9200 -79.9133 43° Northeast 398 458 21,000  Level Washington Center
19:05 35.0025 -79.8214 42° Northeast 403 464 21,000  Level Washington Center
19:06 35.0850 -79.7317 42° Northeast 397 457 21,000  Level Washington Center
19:07 35.1694 -79.6394 42° Northeast 397 457 21,000 -600 Level Washington Center
19:08 35.2578 -79.5600 36° Northeast 397 457 19,800 -1,560 Descending Washington Center
19:09 35.3047 -79.5292 28° Northeast 366 421 18,700 -1,920 Descending Washington Center
19:09 35.3453 -79.5008 30° Northeast 378 435 17,900 -1,560 Descending Washington Center
19:10 35.3817 -79.4744 31° Northeast 338 389 17,300 -1,620 Descending Washington Center
19:10 35.4328 -79.4414 28° Northeast 338 389 16,300 -1,560 Descending Washington Center
19:10 35.4542 -79.4244 33° Northeast 320 368 15,900 -1,320 Descending Washington Center
19:11 35.5011 -79.3883 32° Northeast 324 373 15,000 -1,500 Descending Washington Center
19:11 35.5231 -79.3589 48° Northeast 312 359 14,400 -1,500 Descending Washington Center
19:12 35.5603 -79.2967 54° Northeast 300 345 13,500 -1,140 Descending Washington Center
19:13 35.6067 -79.2197 53° Northeast 306 352 12,500 -1,320 Descending Washington Center
19:13 35.6264 -79.1875 53° Northeast 312 359 11,800 -1,800 Descending Washington Center
19:14 35.6614 -79.1275 54° Northeast 306 352 10,700 -1,620 Descending Washington Center
19:15 35.6811 -79.0953 53° Northeast 294 338 10,000 -1,320 Descending Washington Center
19:15 35.7031 -79.0606 52° Northeast 290 334 9,400 -1,500 Descending Washington Center
19:16 35.7250 -79.0231 54° Northeast 251 289 8,500 -1,320 Descending Washington Center
19:16 35.7425 -78.9931 54° Northeast 264 304 8,100 -420 Descending Washington Center
19:17 35.7733 -78.9431 53° Northeast 237 273 8,000 -120 Descending Washington Center
19:17 35.7842 -78.9283 48° Northeast 249 287 8,000  Level Washington Center
19:18 35.8078 -78.9011 43° Northeast 245 282 8,000  Level Washington Center
19:18 35.8414 -78.8897 15° North 237 273 8,000  Level Washington Center
19:19 35.8728 -78.8883 North 247 284 8,000 -540 Level Washington Center
19:20 35.9428 -78.8528 22° Northeast 246 283 7,200 -960 Descending Washington Center
19:21 35.9942 -78.8011 39° Northeast 240 276 6,000 -1,380 Descending Washington Center
19:22 36.0336 -78.7308 55° Northeast 232 267 4,500 -1,380 Descending Washington Center
19:23 35.9950 -78.6933 142° Southeast 208 239 3,200 -1,260 Descending Washington Center
19:24 35.9442 -78.7194 203° Southwest 175 201 1,800 -1,260 Descending Washington Center